sensor_id;sensor_type;location;lat;lon;timestamp;P1;durP1;ratioP1;P2;durP2;ratioP2
4047;SDS011;2038;51.728;6.674;2022-08-01T00:01:46;24.53;;;20.47;;
4047;SDS011;2038;51.728;6.674;2022-08-01T00:04:12;36.87;;;21.57;;
4047;SDS011;2038;51.728;6.674;2022-08-01T00:06:38;31.60;;;22.80;;
4047;SDS011;2038;51.728;6.674;2022-08-01T00:09:05;30.03;;;19.73;;
4047;SDS011;2038;51.728;6.674;2022-08-01T00:11:32;28.20;;;20.37;;
4047;SDS011;2038;51.728;6.674;2022-08-01T00:13:58;33.10;;;22.73;;
4047;SDS011;2038;51.728;6.674;2022-08-01T00:16:24;36.80;;;21.90;;
4047;SDS011;2038;51.728;6.674;2022-08-01T00:18:51;30.43;;;21.20;;
4047;SDS011;2038;51.728;6.674;2022-08-01T00:21:18;40.17;;;22.23;;
4047;SDS011;2038;51.728;6.674;2022-08-01T00:23:45;29.83;;;20.10;;
4047;SDS011;2038;51.728;6.674;2022-08-01T00:26:12;34.20;;;22.67;;
4047;SDS011;2038;51.728;6.674;2022-08-01T00:28:38;37.20;;;24.60;;
4047;SDS011;2038;51.728;6.674;2022-08-01T00:31:05;28.20;;;20.60;;
4047;SDS011;2038;51.728;6.674;2022-08-01T00:33:32;38.57;;;21.93;;
4047;SDS011;2038;51.728;6.674;2022-08-01T00:35:59;31.43;;;21.37;;
4047;SDS011;2038;51.728;6.674;2022-08-01T00:38:25;39.77;;;23.90;;
4047;SDS011;2038;51.728;6.674;2022-08-01T00:40:51;34.07;;;23.43;;
4047;SDS011;2038;51.728;6.674;2022-08-01T00:43:17;35.97;;;23.33;;
4047;SDS011;2038;51.728;6.674;2022-08-01T00:45:44;34.33;;;23.13;;
4047;SDS011;2038;51.728;6.674;2022-08-01T00:48:10;30.00;;;22.60;;
4047;SDS011;2038;51.728;6.674;2022-08-01T00:50:37;36.27;;;23.80;;
4047;SDS011;2038;51.728;6.674;2022-08-01T00:53:04;43.03;;;24.43;;
4047;SDS011;2038;51.728;6.674;2022-08-01T00:55:31;36.77;;;22.80;;
4047;SDS011;2038;51.728;6.674;2022-08-01T00:57:58;32.03;;;22.87;;
4047;SDS011;2038;51.728;6.674;2022-08-01T01:00:24;32.03;;;23.37;;
4047;SDS011;2038;51.728;6.674;2022-08-01T01:02:51;37.00;;;23.37;;
4047;SDS011;2038;51.728;6.674;2022-08-01T01:05:18;36.27;;;24.03;;
4047;SDS011;2038;51.728;6.674;2022-08-01T01:07:48;32.47;;;25.00;;
4047;SDS011;2038;51.728;6.674;2022-08-01T01:10:39;26.90;;;21.67;;
4047;SDS011;2038;51.728;6.674;2022-08-01T01:13:38;29.40;;;24.10;;
4047;SDS011;2038;51.728;6.674;2022-08-01T01:16:17;33.90;;;22.93;;
4047;SDS011;2038;51.728;6.674;2022-08-01T01:18:47;31.63;;;22.67;;
4047;SDS011;2038;51.728;6.674;2022-08-01T01:26:54;25.13;;;20.50;;
4047;SDS011;2038;51.728;6.674;2022-08-01T01:29:54;36.13;;;21.67;;
4047;SDS011;2038;51.728;6.674;2022-08-01T01:32:26;28.30;;;19.70;;
4047;SDS011;2038;51.728;6.674;2022-08-01T01:35:07;29.83;;;19.93;;
4047;SDS011;2038;51.728;6.674;2022-08-01T01:38:14;25.40;;;18.80;;
4047;SDS011;2038;51.728;6.674;2022-08-01T01:40:46;29.50;;;18.87;;
4047;SDS011;2038;51.728;6.674;2022-08-01T01:43:17;22.93;;;17.53;;
4047;SDS011;2038;51.728;6.674;2022-08-01T01:45:47;27.70;;;19.40;;
4047;SDS011;2038;51.728;6.674;2022-08-01T01:48:19;30.50;;;18.47;;
4047;SDS011;2038;51.728;6.674;2022-08-01T01:50:48;31.73;;;18.80;;
4047;SDS011;2038;51.728;6.674;2022-08-01T01:53:19;25.77;;;18.60;;
4047;SDS011;2038;51.728;6.674;2022-08-01T01:55:48;32.83;;;17.50;;
4047;SDS011;2038;51.728;6.674;2022-08-01T01:58:19;23.90;;;16.10;;
4047;SDS011;2038;51.728;6.674;2022-08-01T02:00:48;27.87;;;18.97;;
4047;SDS011;2038;51.728;6.674;2022-08-01T02:03:18;29.10;;;19.47;;
4047;SDS011;2038;51.728;6.674;2022-08-01T02:05:46;21.50;;;16.83;;
4047;SDS011;2038;51.728;6.674;2022-08-01T02:08:15;29.30;;;19.00;;
4047;SDS011;2038;51.728;6.674;2022-08-01T02:10:42;26.50;;;18.37;;
4047;SDS011;2038;51.728;6.674;2022-08-01T02:13:31;24.70;;;18.50;;
4047;SDS011;2038;51.728;6.674;2022-08-01T02:16:02;26.03;;;16.70;;
4047;SDS011;2038;51.728;6.674;2022-08-01T02:18:30;24.57;;;19.40;;
4047;SDS011;2038;51.728;6.674;2022-08-01T02:20:58;27.13;;;20.23;;
4047;SDS011;2038;51.728;6.674;2022-08-01T02:23:31;28.60;;;19.40;;
4047;SDS011;2038;51.728;6.674;2022-08-01T02:26:01;28.03;;;19.37;;
4047;SDS011;2038;51.728;6.674;2022-08-01T02:28:36;30.73;;;21.60;;
4047;SDS011;2038;51.728;6.674;2022-08-01T02:31:18;26.73;;;19.57;;
4047;SDS011;2038;51.728;6.674;2022-08-01T02:33:58;33.03;;;22.43;;
4047;SDS011;2038;51.728;6.674;2022-08-01T02:36:33;31.37;;;21.60;;
4047;SDS011;2038;51.728;6.674;2022-08-01T02:39:03;29.30;;;19.37;;
4047;SDS011;2038;51.728;6.674;2022-08-01T02:41:36;34.77;;;21.33;;
4047;SDS011;2038;51.728;6.674;2022-08-01T02:44:10;29.27;;;19.57;;
4047;SDS011;2038;51.728;6.674;2022-08-01T02:46:51;31.27;;;18.83;;
4047;SDS011;2038;51.728;6.674;2022-08-01T02:49:25;27.67;;;19.00;;
4047;SDS011;2038;51.728;6.674;2022-08-01T02:51:57;30.53;;;20.23;;
4047;SDS011;2038;51.728;6.674;2022-08-01T02:54:29;30.07;;;19.50;;
4047;SDS011;2038;51.728;6.674;2022-08-01T02:56:57;27.77;;;19.07;;
4047;SDS011;2038;51.728;6.674;2022-08-01T02:59:26;26.63;;;20.77;;
4047;SDS011;2038;51.728;6.674;2022-08-01T03:01:55;29.87;;;19.40;;
4047;SDS011;2038;51.728;6.674;2022-08-01T03:04:25;26.93;;;19.57;;
4047;SDS011;2038;51.728;6.674;2022-08-01T03:06:54;27.10;;;18.27;;
4047;SDS011;2038;51.728;6.674;2022-08-01T03:09:23;20.63;;;16.83;;
4047;SDS011;2038;51.728;6.674;2022-08-01T03:11:54;25.83;;;16.93;;
4047;SDS011;2038;51.728;6.674;2022-08-01T03:14:25;27.20;;;20.03;;
4047;SDS011;2038;51.728;6.674;2022-08-01T03:16:55;28.07;;;16.33;;
4047;SDS011;2038;51.728;6.674;2022-08-01T03:19:24;28.37;;;18.73;;
4047;SDS011;2038;51.728;6.674;2022-08-01T03:21:55;28.77;;;19.60;;
4047;SDS011;2038;51.728;6.674;2022-08-01T03:24:24;28.20;;;18.67;;
4047;SDS011;2038;51.728;6.674;2022-08-01T03:26:53;35.77;;;22.63;;
4047;SDS011;2038;51.728;6.674;2022-08-01T03:29:24;24.30;;;17.23;;
4047;SDS011;2038;51.728;6.674;2022-08-01T03:31:54;27.37;;;19.10;;
4047;SDS011;2038;51.728;6.674;2022-08-01T03:34:23;31.43;;;20.73;;
4047;SDS011;2038;51.728;6.674;2022-08-01T03:36:56;26.60;;;17.57;;
4047;SDS011;2038;51.728;6.674;2022-08-01T03:39:40;27.53;;;18.90;;
4047;SDS011;2038;51.728;6.674;2022-08-01T03:42:24;25.63;;;17.43;;
4047;SDS011;2038;51.728;6.674;2022-08-01T03:45:07;28.83;;;18.93;;
4047;SDS011;2038;51.728;6.674;2022-08-01T03:47:38;28.73;;;18.33;;
4047;SDS011;2038;51.728;6.674;2022-08-01T03:50:08;28.50;;;19.07;;
4047;SDS011;2038;51.728;6.674;2022-08-01T03:52:39;30.43;;;19.37;;
4047;SDS011;2038;51.728;6.674;2022-08-01T03:55:10;29.10;;;18.40;;
4047;SDS011;2038;51.728;6.674;2022-08-01T03:57:41;30.10;;;19.77;;
4047;SDS011;2038;51.728;6.674;2022-08-01T04:00:11;27.13;;;18.20;;
4047;SDS011;2038;51.728;6.674;2022-08-01T04:02:38;27.87;;;19.03;;
4047;SDS011;2038;51.728;6.674;2022-08-01T04:05:05;29.03;;;21.13;;
4047;SDS011;2038;51.728;6.674;2022-08-01T04:07:32;34.00;;;21.63;;
4047;SDS011;2038;51.728;6.674;2022-08-01T04:10:04;36.33;;;22.10;;
4047;SDS011;2038;51.728;6.674;2022-08-01T04:12:31;26.17;;;18.77;;
4047;SDS011;2038;51.728;6.674;2022-08-01T04:14:59;30.03;;;20.73;;
4047;SDS011;2038;51.728;6.674;2022-08-01T04:17:25;30.43;;;21.67;;
4047;SDS011;2038;51.728;6.674;2022-08-01T04:19:51;30.47;;;19.60;;
4047;SDS011;2038;51.728;6.674;2022-08-01T04:22:18;28.47;;;19.60;;
4047;SDS011;2038;51.728;6.674;2022-08-01T04:24:45;36.57;;;21.53;;
4047;SDS011;2038;51.728;6.674;2022-08-01T04:27:19;34.13;;;20.17;;
4047;SDS011;2038;51.728;6.674;2022-08-01T04:29:53;33.23;;;20.83;;
4047;SDS011;2038;51.728;6.674;2022-08-01T04:32:25;31.93;;;21.87;;
4047;SDS011;2038;51.728;6.674;2022-08-01T04:34:56;30.27;;;18.87;;
4047;SDS011;2038;51.728;6.674;2022-08-01T04:37:27;31.30;;;20.30;;
4047;SDS011;2038;51.728;6.674;2022-08-01T04:39:55;33.13;;;21.30;;
4047;SDS011;2038;51.728;6.674;2022-08-01T04:42:24;29.93;;;19.47;;
4047;SDS011;2038;51.728;6.674;2022-08-01T04:44:50;38.30;;;23.03;;
4047;SDS011;2038;51.728;6.674;2022-08-01T04:47:17;33.53;;;21.10;;
4047;SDS011;2038;51.728;6.674;2022-08-01T04:49:44;34.57;;;21.00;;
4047;SDS011;2038;51.728;6.674;2022-08-01T04:52:11;28.13;;;19.80;;
4047;SDS011;2038;51.728;6.674;2022-08-01T04:54:37;28.73;;;18.67;;
4047;SDS011;2038;51.728;6.674;2022-08-01T04:57:04;30.10;;;18.83;;
4047;SDS011;2038;51.728;6.674;2022-08-01T04:59:32;25.73;;;18.00;;
4047;SDS011;2038;51.728;6.674;2022-08-01T05:02:10;31.10;;;17.63;;
4047;SDS011;2038;51.728;6.674;2022-08-01T05:04:44;24.37;;;16.30;;
4047;SDS011;2038;51.728;6.674;2022-08-01T05:07:11;24.43;;;15.50;;
4047;SDS011;2038;51.728;6.674;2022-08-01T05:09:39;23.43;;;13.57;;
4047;SDS011;2038;51.728;6.674;2022-08-01T05:12:07;26.10;;;14.27;;
4047;SDS011;2038;51.728;6.674;2022-08-01T05:14:35;25.80;;;14.70;;
4047;SDS011;2038;51.728;6.674;2022-08-01T05:17:02;21.00;;;14.20;;
4047;SDS011;2038;51.728;6.674;2022-08-01T05:19:31;22.07;;;12.90;;
4047;SDS011;2038;51.728;6.674;2022-08-01T05:21:59;18.70;;;12.63;;
4047;SDS011;2038;51.728;6.674;2022-08-01T05:24:29;18.40;;;12.07;;
4047;SDS011;2038;51.728;6.674;2022-08-01T05:26:57;20.30;;;13.03;;
4047;SDS011;2038;51.728;6.674;2022-08-01T05:29:24;20.67;;;13.00;;
4047;SDS011;2038;51.728;6.674;2022-08-01T05:31:51;21.30;;;12.93;;
4047;SDS011;2038;51.728;6.674;2022-08-01T05:34:18;18.20;;;12.60;;
4047;SDS011;2038;51.728;6.674;2022-08-01T05:36:45;15.33;;;11.57;;
4047;SDS011;2038;51.728;6.674;2022-08-01T05:39:12;17.93;;;11.67;;
4047;SDS011;2038;51.728;6.674;2022-08-01T05:41:39;16.40;;;10.70;;
4047;SDS011;2038;51.728;6.674;2022-08-01T05:44:05;19.50;;;10.97;;
4047;SDS011;2038;51.728;6.674;2022-08-01T05:46:32;17.93;;;11.57;;
4047;SDS011;2038;51.728;6.674;2022-08-01T05:49:00;20.60;;;12.40;;
4047;SDS011;2038;51.728;6.674;2022-08-01T05:51:28;21.73;;;12.27;;
4047;SDS011;2038;51.728;6.674;2022-08-01T05:53:55;19.70;;;10.90;;
4047;SDS011;2038;51.728;6.674;2022-08-01T05:56:22;18.50;;;11.73;;
4047;SDS011;2038;51.728;6.674;2022-08-01T05:58:49;15.00;;;11.60;;
4047;SDS011;2038;51.728;6.674;2022-08-01T06:01:16;16.50;;;11.60;;
4047;SDS011;2038;51.728;6.674;2022-08-01T06:03:44;17.33;;;11.87;;
4047;SDS011;2038;51.728;6.674;2022-08-01T06:06:10;24.33;;;13.60;;
4047;SDS011;2038;51.728;6.674;2022-08-01T06:08:38;21.63;;;12.60;;
4047;SDS011;2038;51.728;6.674;2022-08-01T06:11:06;19.83;;;11.83;;
4047;SDS011;2038;51.728;6.674;2022-08-01T06:13:32;14.57;;;10.30;;
4047;SDS011;2038;51.728;6.674;2022-08-01T06:15:58;19.00;;;11.50;;
4047;SDS011;2038;51.728;6.674;2022-08-01T06:18:25;17.50;;;11.33;;
4047;SDS011;2038;51.728;6.674;2022-08-01T06:20:51;18.57;;;12.43;;
4047;SDS011;2038;51.728;6.674;2022-08-01T06:23:17;16.93;;;11.47;;
4047;SDS011;2038;51.728;6.674;2022-08-01T06:25:45;19.47;;;11.13;;
4047;SDS011;2038;51.728;6.674;2022-08-01T06:28:12;13.93;;;10.30;;
4047;SDS011;2038;51.728;6.674;2022-08-01T06:30:38;13.40;;;9.80;;
4047;SDS011;2038;51.728;6.674;2022-08-01T06:33:05;17.07;;;11.57;;
4047;SDS011;2038;51.728;6.674;2022-08-01T06:35:31;14.93;;;10.37;;
4047;SDS011;2038;51.728;6.674;2022-08-01T06:37:57;16.27;;;9.47;;
4047;SDS011;2038;51.728;6.674;2022-08-01T06:40:23;13.00;;;10.03;;
4047;SDS011;2038;51.728;6.674;2022-08-01T06:42:50;13.30;;;8.90;;
4047;SDS011;2038;51.728;6.674;2022-08-01T06:45:16;9.73;;;7.87;;
4047;SDS011;2038;51.728;6.674;2022-08-01T06:47:43;12.57;;;9.03;;
4047;SDS011;2038;51.728;6.674;2022-08-01T06:50:10;9.63;;;7.17;;
4047;SDS011;2038;51.728;6.674;2022-08-01T06:52:39;11.87;;;6.80;;
4047;SDS011;2038;51.728;6.674;2022-08-01T06:55:06;7.60;;;6.17;;
4047;SDS011;2038;51.728;6.674;2022-08-01T06:57:33;7.10;;;5.97;;
4047;SDS011;2038;51.728;6.674;2022-08-01T07:00:04;9.93;;;7.53;;
4047;SDS011;2038;51.728;6.674;2022-08-01T07:02:37;11.67;;;8.03;;
4047;SDS011;2038;51.728;6.674;2022-08-01T07:05:04;8.13;;;6.07;;
4047;SDS011;2038;51.728;6.674;2022-08-01T07:07:31;9.23;;;5.27;;
4047;SDS011;2038;51.728;6.674;2022-08-01T07:09:57;9.73;;;7.70;;
4047;SDS011;2038;51.728;6.674;2022-08-01T07:12:23;12.00;;;8.73;;
4047;SDS011;2038;51.728;6.674;2022-08-01T07:14:49;15.77;;;10.80;;
4047;SDS011;2038;51.728;6.674;2022-08-01T07:17:16;12.20;;;9.40;;
4047;SDS011;2038;51.728;6.674;2022-08-01T07:19:42;15.40;;;9.10;;
4047;SDS011;2038;51.728;6.674;2022-08-01T07:22:08;13.00;;;9.30;;
4047;SDS011;2038;51.728;6.674;2022-08-01T07:24:34;12.83;;;9.17;;
4047;SDS011;2038;51.728;6.674;2022-08-01T07:27:01;11.97;;;9.67;;
4047;SDS011;2038;51.728;6.674;2022-08-01T07:29:27;15.00;;;10.70;;
4047;SDS011;2038;51.728;6.674;2022-08-01T07:31:54;14.73;;;10.60;;
4047;SDS011;2038;51.728;6.674;2022-08-01T07:34:22;13.00;;;9.27;;
4047;SDS011;2038;51.728;6.674;2022-08-01T07:36:50;16.93;;;10.10;;
4047;SDS011;2038;51.728;6.674;2022-08-01T07:39:17;10.53;;;7.27;;
4047;SDS011;2038;51.728;6.674;2022-08-01T07:41:44;10.40;;;8.03;;
4047;SDS011;2038;51.728;6.674;2022-08-01T07:44:10;10.13;;;7.00;;
4047;SDS011;2038;51.728;6.674;2022-08-01T07:46:36;7.00;;;5.63;;
4047;SDS011;2038;51.728;6.674;2022-08-01T07:49:03;12.20;;;6.43;;
4047;SDS011;2038;51.728;6.674;2022-08-01T07:51:29;5.93;;;5.00;;
4047;SDS011;2038;51.728;6.674;2022-08-01T07:53:55;7.17;;;5.83;;
4047;SDS011;2038;51.728;6.674;2022-08-01T07:56:22;7.50;;;5.03;;
4047;SDS011;2038;51.728;6.674;2022-08-01T07:58:49;7.40;;;5.70;;
4047;SDS011;2038;51.728;6.674;2022-08-01T08:01:15;6.33;;;5.27;;
4047;SDS011;2038;51.728;6.674;2022-08-01T08:03:41;6.80;;;4.67;;
4047;SDS011;2038;51.728;6.674;2022-08-01T08:06:07;8.73;;;5.00;;
4047;SDS011;2038;51.728;6.674;2022-08-01T08:08:34;5.40;;;4.53;;
4047;SDS011;2038;51.728;6.674;2022-08-01T08:11:00;6.37;;;5.00;;
4047;SDS011;2038;51.728;6.674;2022-08-01T08:13:26;6.93;;;4.60;;
4047;SDS011;2038;51.728;6.674;2022-08-01T08:15:53;5.77;;;4.20;;
4047;SDS011;2038;51.728;6.674;2022-08-01T08:18:19;2.93;;;2.47;;
4047;SDS011;2038;51.728;6.674;2022-08-01T08:20:45;7.83;;;3.63;;
4047;SDS011;2038;51.728;6.674;2022-08-01T08:23:12;4.13;;;2.30;;
4047;SDS011;2038;51.728;6.674;2022-08-01T08:25:56;2.00;;;1.40;;
4047;SDS011;2038;51.728;6.674;2022-08-01T08:28:22;3.47;;;2.33;;
4047;SDS011;2038;51.728;6.674;2022-08-01T08:30:49;0.70;;;0.50;;
4047;SDS011;2038;51.728;6.674;2022-08-01T08:33:15;0.70;;;0.50;;
4047;SDS011;2038;51.728;6.674;2022-08-01T08:35:41;1.93;;;0.40;;
4047;SDS011;2038;51.728;6.674;2022-08-01T08:38:07;1.00;;;0.77;;
4047;SDS011;2038;51.728;6.674;2022-08-01T08:40:34;0.70;;;0.40;;
4047;SDS011;2038;51.728;6.674;2022-08-01T08:43:03;1.33;;;0.60;;
4047;SDS011;2038;51.728;6.674;2022-08-01T08:45:30;0.70;;;0.50;;
4047;SDS011;2038;51.728;6.674;2022-08-01T08:47:58;0.80;;;0.63;;
4047;SDS011;2038;51.728;6.674;2022-08-01T08:50:25;0.70;;;0.57;;
4047;SDS011;2038;51.728;6.674;2022-08-01T08:52:54;0.90;;;0.50;;
4047;SDS011;2038;51.728;6.674;2022-08-01T08:55:21;0.70;;;0.50;;
4047;SDS011;2038;51.728;6.674;2022-08-01T08:57:49;1.43;;;0.50;;
4047;SDS011;2038;51.728;6.674;2022-08-01T09:00:17;0.60;;;0.40;;
4047;SDS011;2038;51.728;6.674;2022-08-01T09:02:45;0.97;;;0.60;;
4047;SDS011;2038;51.728;6.674;2022-08-01T09:05:14;2.37;;;0.63;;
4047;SDS011;2038;51.728;6.674;2022-08-01T09:07:41;0.60;;;0.40;;
4047;SDS011;2038;51.728;6.674;2022-08-01T09:10:08;0.70;;;0.50;;
4047;SDS011;2038;51.728;6.674;2022-08-01T09:12:36;1.83;;;0.70;;
4047;SDS011;2038;51.728;6.674;2022-08-01T09:15:02;0.70;;;0.50;;
4047;SDS011;2038;51.728;6.674;2022-08-01T09:17:38;1.30;;;0.70;;
4047;SDS011;2038;51.728;6.674;2022-08-01T09:20:06;1.13;;;0.60;;
4047;SDS011;2038;51.728;6.674;2022-08-01T09:22:47;0.70;;;0.50;;
4047;SDS011;2038;51.728;6.674;2022-08-01T09:25:14;0.73;;;0.50;;
4047;SDS011;2038;51.728;6.674;2022-08-01T09:27:40;0.90;;;0.73;;
4047;SDS011;2038;51.728;6.674;2022-08-01T09:30:10;1.03;;;0.80;;
4047;SDS011;2038;51.728;6.674;2022-08-01T09:32:53;0.80;;;0.53;;
4047;SDS011;2038;51.728;6.674;2022-08-01T09:35:29;0.97;;;0.87;;
4047;SDS011;2038;51.728;6.674;2022-08-01T09:40:59;1.20;;;1.10;;
4047;SDS011;2038;51.728;6.674;2022-08-01T09:43:27;1.40;;;1.07;;
4047;SDS011;2038;51.728;6.674;2022-08-01T09:45:55;1.70;;;0.87;;
4047;SDS011;2038;51.728;6.674;2022-08-01T09:48:22;1.33;;;1.23;;
4047;SDS011;2038;51.728;6.674;2022-08-01T09:50:50;2.33;;;0.80;;
4047;SDS011;2038;51.728;6.674;2022-08-01T09:53:18;1.37;;;1.10;;
4047;SDS011;2038;51.728;6.674;2022-08-01T09:55:45;0.90;;;0.80;;
4047;SDS011;2038;51.728;6.674;2022-08-01T09:58:11;1.47;;;1.00;;
4047;SDS011;2038;51.728;6.674;2022-08-01T10:00:39;1.27;;;1.00;;
4047;SDS011;2038;51.728;6.674;2022-08-01T10:03:18;1.87;;;1.60;;
4047;SDS011;2038;51.728;6.674;2022-08-01T10:05:48;1.33;;;1.23;;
4047;SDS011;2038;51.728;6.674;2022-08-01T10:08:15;2.40;;;1.40;;
4047;SDS011;2038;51.728;6.674;2022-08-01T10:10:42;1.23;;;1.13;;
4047;SDS011;2038;51.728;6.674;2022-08-01T10:13:33;3.70;;;0.93;;
4047;SDS011;2038;51.728;6.674;2022-08-01T10:16:00;1.53;;;1.10;;
4047;SDS011;2038;51.728;6.674;2022-08-01T10:18:29;1.40;;;1.20;;
4047;SDS011;2038;51.728;6.674;2022-08-01T10:21:00;1.70;;;1.60;;
4047;SDS011;2038;51.728;6.674;2022-08-01T10:23:35;1.70;;;1.60;;
4047;SDS011;2038;51.728;6.674;2022-08-01T10:26:04;1.90;;;1.60;;
4047;SDS011;2038;51.728;6.674;2022-08-01T10:28:32;1.43;;;1.30;;
4047;SDS011;2038;51.728;6.674;2022-08-01T10:31:02;2.10;;;1.60;;
4047;SDS011;2038;51.728;6.674;2022-08-01T10:33:30;2.17;;;1.97;;
4047;SDS011;2038;51.728;6.674;2022-08-01T10:35:57;1.50;;;1.40;;
4047;SDS011;2038;51.728;6.674;2022-08-01T10:38:24;1.63;;;1.53;;
4047;SDS011;2038;51.728;6.674;2022-08-01T10:40:52;1.57;;;1.40;;
4047;SDS011;2038;51.728;6.674;2022-08-01T10:43:22;1.70;;;1.50;;
4047;SDS011;2038;51.728;6.674;2022-08-01T10:45:48;1.73;;;1.10;;
4047;SDS011;2038;51.728;6.674;2022-08-01T10:48:18;3.83;;;1.70;;
4047;SDS011;2038;51.728;6.674;2022-08-01T10:50:53;2.03;;;1.17;;
4047;SDS011;2038;51.728;6.674;2022-08-01T10:53:28;1.70;;;1.60;;
4047;SDS011;2038;51.728;6.674;2022-08-01T10:58:39;2.10;;;1.50;;
4047;SDS011;2038;51.728;6.674;2022-08-01T11:01:28;3.13;;;2.07;;
4047;SDS011;2038;51.728;6.674;2022-08-01T11:06:40;1.63;;;1.53;;
4047;SDS011;2038;51.728;6.674;2022-08-01T11:09:29;5.47;;;2.33;;
4047;SDS011;2038;51.728;6.674;2022-08-01T11:12:13;2.30;;;1.70;;
4047;SDS011;2038;51.728;6.674;2022-08-01T11:17:30;5.50;;;2.10;;
4047;SDS011;2038;51.728;6.674;2022-08-01T11:20:04;2.50;;;2.30;;
4047;SDS011;2038;51.728;6.674;2022-08-01T11:33:14;1.57;;;1.47;;
4047;SDS011;2038;51.728;6.674;2022-08-01T11:38:35;3.77;;;2.20;;
4047;SDS011;2038;51.728;6.674;2022-08-01T11:43:59;2.10;;;1.90;;
4047;SDS011;2038;51.728;6.674;2022-08-01T11:52:03;5.33;;;2.40;;
4047;SDS011;2038;51.728;6.674;2022-08-01T11:54:51;2.23;;;1.87;;
4047;SDS011;2038;51.728;6.674;2022-08-01T11:57:30;2.23;;;2.03;;
4047;SDS011;2038;51.728;6.674;2022-08-01T12:02:39;3.30;;;2.20;;
4047;SDS011;2038;51.728;6.674;2022-08-01T12:05:06;4.43;;;2.20;;
4047;SDS011;2038;51.728;6.674;2022-08-01T12:07:36;4.40;;;2.40;;
4047;SDS011;2038;51.728;6.674;2022-08-01T12:10:10;1.93;;;1.77;;
4047;SDS011;2038;51.728;6.674;2022-08-01T12:12:46;5.43;;;2.43;;
4047;SDS011;2038;51.728;6.674;2022-08-01T12:15:17;4.57;;;2.53;;
4047;SDS011;2038;51.728;6.674;2022-08-01T12:17:47;3.23;;;2.40;;
4047;SDS011;2038;51.728;6.674;2022-08-01T12:20:23;4.00;;;2.40;;
4047;SDS011;2038;51.728;6.674;2022-08-01T12:22:55;2.97;;;2.50;;
4047;SDS011;2038;51.728;6.674;2022-08-01T12:25:25;3.10;;;2.53;;
4047;SDS011;2038;51.728;6.674;2022-08-01T12:27:52;5.40;;;2.07;;
4047;SDS011;2038;51.728;6.674;2022-08-01T12:30:20;2.23;;;1.77;;
4047;SDS011;2038;51.728;6.674;2022-08-01T12:32:50;7.07;;;2.30;;
4047;SDS011;2038;51.728;6.674;2022-08-01T12:35:28;2.43;;;1.77;;
4047;SDS011;2038;51.728;6.674;2022-08-01T12:37:56;3.40;;;2.53;;
4047;SDS011;2038;51.728;6.674;2022-08-01T12:40:27;5.50;;;2.90;;
4047;SDS011;2038;51.728;6.674;2022-08-01T12:42:59;3.93;;;2.30;;
4047;SDS011;2038;51.728;6.674;2022-08-01T12:45:35;6.30;;;3.30;;
4047;SDS011;2038;51.728;6.674;2022-08-01T12:48:08;3.70;;;2.07;;
4047;SDS011;2038;51.728;6.674;2022-08-01T12:50:39;4.60;;;2.80;;
4047;SDS011;2038;51.728;6.674;2022-08-01T12:53:09;9.73;;;3.27;;
4047;SDS011;2038;51.728;6.674;2022-08-01T12:55:49;7.00;;;2.47;;
4047;SDS011;2038;51.728;6.674;2022-08-01T12:58:18;4.03;;;3.50;;
4047;SDS011;2038;51.728;6.674;2022-08-01T13:00:46;5.83;;;4.17;;
4047;SDS011;2038;51.728;6.674;2022-08-01T13:03:19;6.47;;;4.07;;
4047;SDS011;2038;51.728;6.674;2022-08-01T13:08:26;3.63;;;3.07;;
4047;SDS011;2038;51.728;6.674;2022-08-01T13:11:01;6.20;;;2.47;;
4047;SDS011;2038;51.728;6.674;2022-08-01T13:16:21;5.57;;;1.87;;
4047;SDS011;2038;51.728;6.674;2022-08-01T13:18:52;4.10;;;2.07;;
4047;SDS011;2038;51.728;6.674;2022-08-01T13:21:25;3.20;;;1.83;;
4047;SDS011;2038;51.728;6.674;2022-08-01T13:24:01;2.30;;;2.10;;
4047;SDS011;2038;51.728;6.674;2022-08-01T13:29:13;3.27;;;1.70;;
4047;SDS011;2038;51.728;6.674;2022-08-01T13:31:45;2.00;;;1.80;;
4047;SDS011;2038;51.728;6.674;2022-08-01T13:34:12;1.63;;;1.37;;
4047;SDS011;2038;51.728;6.674;2022-08-01T13:36:39;2.30;;;1.53;;
4047;SDS011;2038;51.728;6.674;2022-08-01T13:39:06;3.00;;;1.60;;
4047;SDS011;2038;51.728;6.674;2022-08-01T13:41:51;1.47;;;1.37;;
4047;SDS011;2038;51.728;6.674;2022-08-01T13:44:18;1.80;;;1.47;;
4047;SDS011;2038;51.728;6.674;2022-08-01T13:46:44;1.73;;;1.40;;
4047;SDS011;2038;51.728;6.674;2022-08-01T13:49:14;1.77;;;1.47;;
4047;SDS011;2038;51.728;6.674;2022-08-01T13:51:40;5.00;;;2.37;;
4047;SDS011;2038;51.728;6.674;2022-08-01T13:54:06;3.20;;;1.83;;
4047;SDS011;2038;51.728;6.674;2022-08-01T13:56:33;6.37;;;2.27;;
4047;SDS011;2038;51.728;6.674;2022-08-01T13:58:59;2.43;;;2.10;;
4047;SDS011;2038;51.728;6.674;2022-08-01T14:01:26;6.33;;;2.50;;
4047;SDS011;2038;51.728;6.674;2022-08-01T14:03:52;4.80;;;2.67;;
4047;SDS011;2038;51.728;6.674;2022-08-01T14:06:18;5.30;;;2.60;;
4047;SDS011;2038;51.728;6.674;2022-08-01T14:08:47;4.43;;;2.37;;
4047;SDS011;2038;51.728;6.674;2022-08-01T14:11:14;3.10;;;2.37;;
4047;SDS011;2038;51.728;6.674;2022-08-01T14:13:41;5.00;;;2.33;;
4047;SDS011;2038;51.728;6.674;2022-08-01T14:16:07;5.63;;;2.27;;
4047;SDS011;2038;51.728;6.674;2022-08-01T14:18:34;7.70;;;2.23;;
4047;SDS011;2038;51.728;6.674;2022-08-01T14:21:00;2.83;;;1.70;;
4047;SDS011;2038;51.728;6.674;2022-08-01T14:23:26;3.73;;;2.03;;
4047;SDS011;2038;51.728;6.674;2022-08-01T14:25:53;2.40;;;1.90;;
4047;SDS011;2038;51.728;6.674;2022-08-01T14:28:19;4.10;;;1.80;;
4047;SDS011;2038;51.728;6.674;2022-08-01T14:30:45;3.27;;;2.23;;
4047;SDS011;2038;51.728;6.674;2022-08-01T14:33:12;2.50;;;2.07;;
4047;SDS011;2038;51.728;6.674;2022-08-01T14:35:39;5.77;;;3.23;;
4047;SDS011;2038;51.728;6.674;2022-08-01T14:38:06;3.30;;;2.50;;
4047;SDS011;2038;51.728;6.674;2022-08-01T14:40:32;5.00;;;2.47;;
4047;SDS011;2038;51.728;6.674;2022-08-01T14:42:59;5.50;;;2.33;;
4047;SDS011;2038;51.728;6.674;2022-08-01T14:45:26;3.23;;;2.47;;
4047;SDS011;2038;51.728;6.674;2022-08-01T14:47:53;6.10;;;2.67;;
4047;SDS011;2038;51.728;6.674;2022-08-01T14:50:19;4.60;;;2.40;;
4047;SDS011;2038;51.728;6.674;2022-08-01T14:52:45;3.27;;;2.10;;
4047;SDS011;2038;51.728;6.674;2022-08-01T14:55:12;3.60;;;2.13;;
4047;SDS011;2038;51.728;6.674;2022-08-01T14:57:39;4.53;;;2.67;;
4047;SDS011;2038;51.728;6.674;2022-08-01T15:00:06;4.57;;;2.83;;
4047;SDS011;2038;51.728;6.674;2022-08-01T15:02:38;7.17;;;2.70;;
4047;SDS011;2038;51.728;6.674;2022-08-01T15:05:05;4.77;;;2.90;;
4047;SDS011;2038;51.728;6.674;2022-08-01T15:07:32;3.90;;;2.43;;
4047;SDS011;2038;51.728;6.674;2022-08-01T15:09:59;6.40;;;2.57;;
4047;SDS011;2038;51.728;6.674;2022-08-01T15:12:25;8.53;;;2.47;;
4047;SDS011;2038;51.728;6.674;2022-08-01T15:14:51;4.13;;;2.33;;
4047;SDS011;2038;51.728;6.674;2022-08-01T15:19:57;6.30;;;2.60;;
4047;SDS011;2038;51.728;6.674;2022-08-01T15:22:30;4.27;;;2.27;;
4047;SDS011;2038;51.728;6.674;2022-08-01T15:24:58;3.73;;;1.83;;
4047;SDS011;2038;51.728;6.674;2022-08-01T15:27:26;4.67;;;2.20;;
4047;SDS011;2038;51.728;6.674;2022-08-01T15:29:54;6.03;;;2.30;;
4047;SDS011;2038;51.728;6.674;2022-08-01T15:32:21;5.97;;;2.33;;
4047;SDS011;2038;51.728;6.674;2022-08-01T15:34:48;4.27;;;2.13;;
4047;SDS011;2038;51.728;6.674;2022-08-01T15:37:14;5.20;;;2.33;;
4047;SDS011;2038;51.728;6.674;2022-08-01T15:39:41;3.00;;;2.10;;
4047;SDS011;2038;51.728;6.674;2022-08-01T15:42:09;7.17;;;2.50;;
4047;SDS011;2038;51.728;6.674;2022-08-01T15:44:37;10.23;;;3.13;;
4047;SDS011;2038;51.728;6.674;2022-08-01T15:47:04;2.43;;;2.20;;
4047;SDS011;2038;51.728;6.674;2022-08-01T15:49:32;3.87;;;2.27;;
4047;SDS011;2038;51.728;6.674;2022-08-01T15:52:01;4.83;;;2.70;;
4047;SDS011;2038;51.728;6.674;2022-08-01T15:54:31;4.07;;;1.80;;
4047;SDS011;2038;51.728;6.674;2022-08-01T15:56:59;3.50;;;2.47;;
4047;SDS011;2038;51.728;6.674;2022-08-01T15:59:26;7.70;;;2.60;;
4047;SDS011;2038;51.728;6.674;2022-08-01T16:01:53;4.93;;;2.23;;
4047;SDS011;2038;51.728;6.674;2022-08-01T16:04:20;3.77;;;2.23;;
4047;SDS011;2038;51.728;6.674;2022-08-01T16:06:46;6.20;;;1.93;;
4047;SDS011;2038;51.728;6.674;2022-08-01T16:09:13;3.60;;;2.60;;